sensor_id;sensor_type;location;lat;lon;timestamp;P1;durP1;ratioP1;P2;durP2;ratioP2
4895;SDS011;2463;49.948;8.472;2023-04-06T00:00:09;94.93;;;7.22;;
4895;SDS011;2463;49.948;8.472;2023-04-06T00:02:36;98.43;;;7.80;;
4895;SDS011;2463;49.948;8.472;2023-04-06T00:05:03;97.85;;;8.23;;
4895;SDS011;2463;49.948;8.472;2023-04-06T00:07:30;103.13;;;8.05;;
4895;SDS011;2463;49.948;8.472;2023-04-06T00:09:56;95.93;;;7.93;;
4895;SDS011;2463;49.948;8.472;2023-04-06T00:12:23;97.35;;;8.43;;
4895;SDS011;2463;49.948;8.472;2023-04-06T00:14:50;101.47;;;8.70;;
4895;SDS011;2463;49.948;8.472;2023-04-06T00:17:16;96.32;;;7.35;;
4895;SDS011;2463;49.948;8.472;2023-04-06T00:19:43;94.55;;;7.20;;
4895;SDS011;2463;49.948;8.472;2023-04-06T00:22:10;97.22;;;7.65;;
4895;SDS011;2463;49.948;8.472;2023-04-06T00:24:37;95.93;;;7.80;;
4895;SDS011;2463;49.948;8.472;2023-04-06T00:27:03;95.95;;;7.40;;
4895;SDS011;2463;49.948;8.472;2023-04-06T00:29:30;96.95;;;7.53;;
4895;SDS011;2463;49.948;8.472;2023-04-06T00:31:57;98.55;;;7.88;;
4895;SDS011;2463;49.948;8.472;2023-04-06T00:34:24;96.43;;;7.60;;
4895;SDS011;2463;49.948;8.472;2023-04-06T00:36:50;97.18;;;8.55;;
4895;SDS011;2463;49.948;8.472;2023-04-06T00:39:17;101.88;;;7.88;;
4895;SDS011;2463;49.948;8.472;2023-04-06T00:41:46;95.60;;;7.82;;
4895;SDS011;2463;49.948;8.472;2023-04-06T00:44:16;96.97;;;7.82;;
4895;SDS011;2463;49.948;8.472;2023-04-06T00:46:44;97.05;;;8.18;;
4895;SDS011;2463;49.948;8.472;2023-04-06T00:49:11;97.72;;;7.60;;
4895;SDS011;2463;49.948;8.472;2023-04-06T00:51:37;95.95;;;7.60;;
4895;SDS011;2463;49.948;8.472;2023-04-06T00:54:04;101.30;;;8.25;;
4895;SDS011;2463;49.948;8.472;2023-04-06T00:56:31;97.57;;;7.63;;
4895;SDS011;2463;49.948;8.472;2023-04-06T00:58:58;96.13;;;7.43;;
4895;SDS011;2463;49.948;8.472;2023-04-06T01:01:25;102.25;;;8.48;;
4895;SDS011;2463;49.948;8.472;2023-04-06T01:03:52;97.40;;;8.25;;
4895;SDS011;2463;49.948;8.472;2023-04-06T01:06:20;97.90;;;8.05;;
4895;SDS011;2463;49.948;8.472;2023-04-06T01:08:46;98.43;;;8.70;;
4895;SDS011;2463;49.948;8.472;2023-04-06T01:11:13;97.32;;;7.88;;
4895;SDS011;2463;49.948;8.472;2023-04-06T01:13:40;105.10;;;9.98;;
4895;SDS011;2463;49.948;8.472;2023-04-06T01:16:06;96.80;;;8.25;;
4895;SDS011;2463;49.948;8.472;2023-04-06T01:18:33;97.63;;;8.00;;
4895;SDS011;2463;49.948;8.472;2023-04-06T01:21:00;97.97;;;8.25;;
4895;SDS011;2463;49.948;8.472;2023-04-06T01:23:27;97.05;;;8.10;;
4895;SDS011;2463;49.948;8.472;2023-04-06T01:25:54;99.97;;;8.13;;
4895;SDS011;2463;49.948;8.472;2023-04-06T01:28:21;97.55;;;7.55;;
4895;SDS011;2463;49.948;8.472;2023-04-06T01:30:47;95.72;;;7.60;;
4895;SDS011;2463;49.948;8.472;2023-04-06T01:33:14;96.53;;;7.90;;
4895;SDS011;2463;49.948;8.472;2023-04-06T01:35:41;96.22;;;7.72;;
4895;SDS011;2463;49.948;8.472;2023-04-06T01:38:07;96.97;;;8.23;;
4895;SDS011;2463;49.948;8.472;2023-04-06T01:40:34;96.82;;;7.65;;
4895;SDS011;2463;49.948;8.472;2023-04-06T01:43:01;100.28;;;8.43;;
4895;SDS011;2463;49.948;8.472;2023-04-06T01:45:28;99.10;;;8.27;;
4895;SDS011;2463;49.948;8.472;2023-04-06T01:47:54;96.10;;;7.75;;
4895;SDS011;2463;49.948;8.472;2023-04-06T01:50:21;97.20;;;8.60;;
4895;SDS011;2463;49.948;8.472;2023-04-06T01:52:48;97.47;;;8.70;;
4895;SDS011;2463;49.948;8.472;2023-04-06T01:55:14;97.40;;;8.20;;
4895;SDS011;2463;49.948;8.472;2023-04-06T01:57:41;98.32;;;8.77;;
4895;SDS011;2463;49.948;8.472;2023-04-06T02:00:08;98.28;;;7.95;;
4895;SDS011;2463;49.948;8.472;2023-04-06T02:02:35;97.00;;;8.05;;
4895;SDS011;2463;49.948;8.472;2023-04-06T02:05:02;97.47;;;8.65;;
4895;SDS011;2463;49.948;8.472;2023-04-06T02:07:29;98.32;;;8.27;;
4895;SDS011;2463;49.948;8.472;2023-04-06T02:09:55;98.43;;;8.23;;
4895;SDS011;2463;49.948;8.472;2023-04-06T02:12:22;97.47;;;8.45;;
4895;SDS011;2463;49.948;8.472;2023-04-06T02:14:50;95.63;;;7.53;;
4895;SDS011;2463;49.948;8.472;2023-04-06T02:17:17;98.57;;;8.10;;
4895;SDS011;2463;49.948;8.472;2023-04-06T02:19:43;96.22;;;7.60;;
4895;SDS011;2463;49.948;8.472;2023-04-06T02:22:10;97.28;;;7.65;;
4895;SDS011;2463;49.948;8.472;2023-04-06T02:24:37;96.07;;;7.90;;
4895;SDS011;2463;49.948;8.472;2023-04-06T02:27:04;97.72;;;8.32;;
4895;SDS011;2463;49.948;8.472;2023-04-06T02:29:31;95.70;;;7.55;;
4895;SDS011;2463;49.948;8.472;2023-04-06T02:31:57;97.75;;;8.10;;
4895;SDS011;2463;49.948;8.472;2023-04-06T02:34:24;97.10;;;7.97;;
4895;SDS011;2463;49.948;8.472;2023-04-06T02:36:51;95.72;;;7.60;;
4895;SDS011;2463;49.948;8.472;2023-04-06T02:39:17;98.45;;;7.80;;
4895;SDS011;2463;49.948;8.472;2023-04-06T02:41:44;95.32;;;7.43;;
4895;SDS011;2463;49.948;8.472;2023-04-06T02:44:11;97.38;;;8.20;;
4895;SDS011;2463;49.948;8.472;2023-04-06T02:46:37;96.95;;;8.27;;
4895;SDS011;2463;49.948;8.472;2023-04-06T02:49:04;99.30;;;8.80;;
4895;SDS011;2463;49.948;8.472;2023-04-06T02:51:32;100.30;;;9.93;;
4895;SDS011;2463;49.948;8.472;2023-04-06T02:53:59;97.07;;;8.35;;
4895;SDS011;2463;49.948;8.472;2023-04-06T02:56:26;95.68;;;7.85;;
4895;SDS011;2463;49.948;8.472;2023-04-06T02:58:53;97.53;;;7.97;;
4895;SDS011;2463;49.948;8.472;2023-04-06T03:01:19;97.18;;;8.48;;
4895;SDS011;2463;49.948;8.472;2023-04-06T03:03:46;98.38;;;7.95;;
4895;SDS011;2463;49.948;8.472;2023-04-06T03:06:13;97.68;;;8.07;;
4895;SDS011;2463;49.948;8.472;2023-04-06T03:08:39;98.03;;;8.00;;
4895;SDS011;2463;49.948;8.472;2023-04-06T03:11:06;98.90;;;8.98;;
4895;SDS011;2463;49.948;8.472;2023-04-06T03:13:33;98.50;;;8.48;;
4895;SDS011;2463;49.948;8.472;2023-04-06T03:16:00;98.95;;;9.73;;
4895;SDS011;2463;49.948;8.472;2023-04-06T03:18:26;98.25;;;8.10;;
4895;SDS011;2463;49.948;8.472;2023-04-06T03:20:53;97.55;;;8.40;;
4895;SDS011;2463;49.948;8.472;2023-04-06T03:23:20;96.28;;;7.70;;
4895;SDS011;2463;49.948;8.472;2023-04-06T03:25:47;95.25;;;7.50;;
4895;SDS011;2463;49.948;8.472;2023-04-06T03:28:14;96.78;;;8.48;;
4895;SDS011;2463;49.948;8.472;2023-04-06T03:30:41;97.68;;;8.55;;
4895;SDS011;2463;49.948;8.472;2023-04-06T03:33:07;98.63;;;8.60;;
4895;SDS011;2463;49.948;8.472;2023-04-06T03:35:34;100.72;;;8.80;;
4895;SDS011;2463;49.948;8.472;2023-04-06T03:38:03;97.60;;;8.45;;
4895;SDS011;2463;49.948;8.472;2023-04-06T03:40:30;97.28;;;7.93;;
4895;SDS011;2463;49.948;8.472;2023-04-06T03:42:57;96.82;;;8.20;;
4895;SDS011;2463;49.948;8.472;2023-04-06T03:45:24;99.15;;;8.60;;
4895;SDS011;2463;49.948;8.472;2023-04-06T03:47:51;96.38;;;7.95;;
4895;SDS011;2463;49.948;8.472;2023-04-06T03:50:17;96.45;;;8.18;;
4895;SDS011;2463;49.948;8.472;2023-04-06T03:52:44;102.78;;;8.15;;
4895;SDS011;2463;49.948;8.472;2023-04-06T03:55:11;100.88;;;8.18;;
4895;SDS011;2463;49.948;8.472;2023-04-06T03:57:37;99.53;;;8.25;;
4895;SDS011;2463;49.948;8.472;2023-04-06T04:00:04;97.00;;;8.50;;
4895;SDS011;2463;49.948;8.472;2023-04-06T04:02:31;97.30;;;7.97;;
4895;SDS011;2463;49.948;8.472;2023-04-06T04:04:58;109.40;;;8.90;;
4895;SDS011;2463;49.948;8.472;2023-04-06T04:07:25;97.38;;;8.15;;
4895;SDS011;2463;49.948;8.472;2023-04-06T04:09:52;98.38;;;8.40;;
4895;SDS011;2463;49.948;8.472;2023-04-06T04:12:18;97.47;;;8.07;;
4895;SDS011;2463;49.948;8.472;2023-04-06T04:14:45;97.10;;;8.35;;
4895;SDS011;2463;49.948;8.472;2023-04-06T04:17:12;94.72;;;7.60;;
4895;SDS011;2463;49.948;8.472;2023-04-06T04:19:38;96.47;;;8.35;;
4895;SDS011;2463;49.948;8.472;2023-04-06T04:22:05;96.60;;;8.15;;
4895;SDS011;2463;49.948;8.472;2023-04-06T04:24:32;98.50;;;8.30;;
4895;SDS011;2463;49.948;8.472;2023-04-06T04:26:59;97.38;;;8.80;;
4895;SDS011;2463;49.948;8.472;2023-04-06T04:29:27;96.18;;;7.57;;
4895;SDS011;2463;49.948;8.472;2023-04-06T04:31:53;96.85;;;7.75;;
4895;SDS011;2463;49.948;8.472;2023-04-06T04:34:20;98.38;;;8.10;;
4895;SDS011;2463;49.948;8.472;2023-04-06T04:36:49;102.05;;;8.45;;
4895;SDS011;2463;49.948;8.472;2023-04-06T04:39:16;97.93;;;7.90;;
4895;SDS011;2463;49.948;8.472;2023-04-06T04:41:43;98.57;;;8.88;;
4895;SDS011;2463;49.948;8.472;2023-04-06T04:44:09;97.40;;;8.40;;
4895;SDS011;2463;49.948;8.472;2023-04-06T04:46:36;97.90;;;8.40;;
4895;SDS011;2463;49.948;8.472;2023-04-06T04:49:03;96.88;;;8.27;;
4895;SDS011;2463;49.948;8.472;2023-04-06T04:51:29;102.20;;;8.55;;
4895;SDS011;2463;49.948;8.472;2023-04-06T04:53:57;97.88;;;8.18;;
4895;SDS011;2463;49.948;8.472;2023-04-06T04:56:23;97.18;;;8.75;;
4895;SDS011;2463;49.948;8.472;2023-04-06T04:58:51;104.32;;;10.80;;
4895;SDS011;2463;49.948;8.472;2023-04-06T05:01:18;97.90;;;8.32;;
4895;SDS011;2463;49.948;8.472;2023-04-06T05:03:44;97.35;;;8.70;;
4895;SDS011;2463;49.948;8.472;2023-04-06T05:06:11;98.45;;;8.82;;
4895;SDS011;2463;49.948;8.472;2023-04-06T05:08:38;97.63;;;9.27;;
4895;SDS011;2463;49.948;8.472;2023-04-06T05:11:05;100.45;;;9.18;;
4895;SDS011;2463;49.948;8.472;2023-04-06T05:13:32;98.22;;;10.05;;
4895;SDS011;2463;49.948;8.472;2023-04-06T05:15:59;100.55;;;8.98;;
4895;SDS011;2463;49.948;8.472;2023-04-06T05:18:25;98.05;;;8.68;;
4895;SDS011;2463;49.948;8.472;2023-04-06T05:20:52;99.53;;;9.05;;
4895;SDS011;2463;49.948;8.472;2023-04-06T05:23:19;99.13;;;9.35;;
4895;SDS011;2463;49.948;8.472;2023-04-06T05:25:46;98.07;;;8.90;;
4895;SDS011;2463;49.948;8.472;2023-04-06T05:28:12;97.97;;;8.15;;
4895;SDS011;2463;49.948;8.472;2023-04-06T05:30:42;104.30;;;8.55;;
4895;SDS011;2463;49.948;8.472;2023-04-06T05:33:10;103.20;;;8.82;;
4895;SDS011;2463;49.948;8.472;2023-04-06T05:35:37;97.80;;;8.30;;
4895;SDS011;2463;49.948;8.472;2023-04-06T05:38:07;110.90;;;8.95;;
4895;SDS011;2463;49.948;8.472;2023-04-06T05:40:34;97.55;;;8.35;;
4895;SDS011;2463;49.948;8.472;2023-04-06T05:43:01;100.13;;;8.43;;
4895;SDS011;2463;49.948;8.472;2023-04-06T05:45:28;100.32;;;9.00;;
4895;SDS011;2463;49.948;8.472;2023-04-06T05:47:56;98.75;;;8.85;;
4895;SDS011;2463;49.948;8.472;2023-04-06T05:50:22;100.55;;;9.00;;
4895;SDS011;2463;49.948;8.472;2023-04-06T05:52:49;96.07;;;7.95;;
4895;SDS011;2463;49.948;8.472;2023-04-06T05:55:16;97.60;;;8.13;;
4895;SDS011;2463;49.948;8.472;2023-04-06T05:57:42;97.22;;;7.82;;
4895;SDS011;2463;49.948;8.472;2023-04-06T06:00:09;96.95;;;8.40;;
4895;SDS011;2463;49.948;8.472;2023-04-06T06:02:36;96.70;;;8.38;;
4895;SDS011;2463;49.948;8.472;2023-04-06T06:05:03;98.40;;;8.90;;
4895;SDS011;2463;49.948;8.472;2023-04-06T06:07:30;97.38;;;8.25;;
4895;SDS011;2463;49.948;8.472;2023-04-06T06:09:57;102.75;;;9.27;;
4895;SDS011;2463;49.948;8.472;2023-04-06T06:12:24;98.65;;;8.60;;
4895;SDS011;2463;49.948;8.472;2023-04-06T06:14:51;96.75;;;8.40;;
4895;SDS011;2463;49.948;8.472;2023-04-06T06:17:17;98.60;;;8.20;;
4895;SDS011;2463;49.948;8.472;2023-04-06T06:19:44;93.72;;;7.53;;
4895;SDS011;2463;49.948;8.472;2023-04-06T06:22:11;98.32;;;7.60;;
4895;SDS011;2463;49.948;8.472;2023-04-06T06:24:37;96.70;;;8.23;;
4895;SDS011;2463;49.948;8.472;2023-04-06T06:27:04;98.68;;;8.48;;
4895;SDS011;2463;49.948;8.472;2023-04-06T06:29:31;96.55;;;8.52;;
4895;SDS011;2463;49.948;8.472;2023-04-06T06:31:57;96.32;;;8.55;;
4895;SDS011;2463;49.948;8.472;2023-04-06T06:34:24;96.75;;;8.48;;
4895;SDS011;2463;49.948;8.472;2023-04-06T06:36:51;95.28;;;8.10;;
4895;SDS011;2463;49.948;8.472;2023-04-06T06:39:20;97.85;;;9.13;;
4895;SDS011;2463;49.948;8.472;2023-04-06T06:41:47;96.38;;;8.35;;
4895;SDS011;2463;49.948;8.472;2023-04-06T06:44:14;100.50;;;9.35;;
4895;SDS011;2463;49.948;8.472;2023-04-06T06:46:42;98.63;;;8.63;;
4895;SDS011;2463;49.948;8.472;2023-04-06T06:49:09;98.80;;;10.45;;
4895;SDS011;2463;49.948;8.472;2023-04-06T06:51:38;95.80;;;9.18;;
4895;SDS011;2463;49.948;8.472;2023-04-06T06:54:05;100.05;;;9.77;;
4895;SDS011;2463;49.948;8.472;2023-04-06T06:56:33;97.00;;;9.98;;
4895;SDS011;2463;49.948;8.472;2023-04-06T06:59:01;95.53;;;9.20;;
4895;SDS011;2463;49.948;8.472;2023-04-06T07:01:28;96.53;;;9.63;;
4895;SDS011;2463;49.948;8.472;2023-04-06T07:03:55;97.50;;;9.65;;
4895;SDS011;2463;49.948;8.472;2023-04-06T07:06:22;96.03;;;9.60;;
4895;SDS011;2463;49.948;8.472;2023-04-06T07:08:48;96.88;;;9.90;;
4895;SDS011;2463;49.948;8.472;2023-04-06T07:11:15;102.20;;;10.40;;
4895;SDS011;2463;49.948;8.472;2023-04-06T07:13:42;99.40;;;10.05;;
4895;SDS011;2463;49.948;8.472;2023-04-06T07:16:09;97.53;;;10.48;;
4895;SDS011;2463;49.948;8.472;2023-04-06T07:18:35;102.28;;;10.10;;
4895;SDS011;2463;49.948;8.472;2023-04-06T07:21:02;94.97;;;9.43;;
4895;SDS011;2463;49.948;8.472;2023-04-06T07:23:29;97.45;;;10.73;;
4895;SDS011;2463;49.948;8.472;2023-04-06T07:25:56;97.05;;;9.88;;
4895;SDS011;2463;49.948;8.472;2023-04-06T07:28:22;96.38;;;10.75;;
4895;SDS011;2463;49.948;8.472;2023-04-06T07:30:49;96.82;;;9.82;;
4895;SDS011;2463;49.948;8.472;2023-04-06T07:33:16;97.50;;;11.20;;
4895;SDS011;2463;49.948;8.472;2023-04-06T07:35:43;105.35;;;10.82;;
4895;SDS011;2463;49.948;8.472;2023-04-06T07:38:09;97.15;;;11.15;;
4895;SDS011;2463;49.948;8.472;2023-04-06T07:40:36;95.38;;;9.85;;
4895;SDS011;2463;49.948;8.472;2023-04-06T07:43:03;93.97;;;9.88;;
4895;SDS011;2463;49.948;8.472;2023-04-06T07:45:30;93.00;;;9.05;;
4895;SDS011;2463;49.948;8.472;2023-04-06T07:47:58;94.93;;;10.13;;
4895;SDS011;2463;49.948;8.472;2023-04-06T07:50:24;99.22;;;10.52;;
4895;SDS011;2463;49.948;8.472;2023-04-06T07:52:51;95.78;;;9.85;;
4895;SDS011;2463;49.948;8.472;2023-04-06T07:55:18;93.85;;;9.88;;
4895;SDS011;2463;49.948;8.472;2023-04-06T07:57:44;95.57;;;10.68;;
4895;SDS011;2463;49.948;8.472;2023-04-06T08:00:11;97.63;;;10.10;;
4895;SDS011;2463;49.948;8.472;2023-04-06T08:02:39;98.57;;;10.25;;
4895;SDS011;2463;49.948;8.472;2023-04-06T08:05:06;93.13;;;9.75;;
4895;SDS011;2463;49.948;8.472;2023-04-06T08:07:33;91.65;;;9.07;;
4895;SDS011;2463;49.948;8.472;2023-04-06T08:10:00;97.20;;;10.73;;
4895;SDS011;2463;49.948;8.472;2023-04-06T08:12:27;92.73;;;10.00;;
4895;SDS011;2463;49.948;8.472;2023-04-06T08:14:53;93.22;;;9.55;;
4895;SDS011;2463;49.948;8.472;2023-04-06T08:17:20;96.65;;;10.57;;
4895;SDS011;2463;49.948;8.472;2023-04-06T08:19:47;95.20;;;10.17;;
4895;SDS011;2463;49.948;8.472;2023-04-06T08:22:14;97.10;;;11.55;;
4895;SDS011;2463;49.948;8.472;2023-04-06T08:24:40;94.65;;;10.20;;
4895;SDS011;2463;49.948;8.472;2023-04-06T08:27:07;95.97;;;11.77;;
4895;SDS011;2463;49.948;8.472;2023-04-06T08:29:34;94.65;;;10.73;;
4895;SDS011;2463;49.948;8.472;2023-04-06T08:32:00;92.30;;;10.35;;
4895;SDS011;2463;49.948;8.472;2023-04-06T08:34:31;92.82;;;10.45;;
4895;SDS011;2463;49.948;8.472;2023-04-06T08:36:59;92.43;;;10.57;;
4895;SDS011;2463;49.948;8.472;2023-04-06T08:39:26;93.45;;;10.32;;
4895;SDS011;2463;49.948;8.472;2023-04-06T08:41:53;94.90;;;10.10;;
4895;SDS011;2463;49.948;8.472;2023-04-06T08:44:23;94.32;;;10.65;;
4895;SDS011;2463;49.948;8.472;2023-04-06T08:46:50;100.20;;;11.85;;
4895;SDS011;2463;49.948;8.472;2023-04-06T08:49:18;97.47;;;10.82;;
4895;SDS011;2463;49.948;8.472;2023-04-06T08:51:45;94.72;;;10.88;;
4895;SDS011;2463;49.948;8.472;2023-04-06T08:54:13;95.68;;;11.23;;
4895;SDS011;2463;49.948;8.472;2023-04-06T08:56:40;96.50;;;11.10;;
4895;SDS011;2463;49.948;8.472;2023-04-06T08:59:07;92.03;;;10.57;;
4895;SDS011;2463;49.948;8.472;2023-04-06T09:01:37;96.33;;;11.47;;
4895;SDS011;2463;49.948;8.472;2023-04-06T09:04:09;93.77;;;11.97;;
4895;SDS011;2463;49.948;8.472;2023-04-06T09:06:38;94.85;;;11.63;;
4895;SDS011;2463;49.948;8.472;2023-04-06T09:09:06;95.93;;;11.25;;
4895;SDS011;2463;49.948;8.472;2023-04-06T09:11:46;99.95;;;10.95;;
4895;SDS011;2463;49.948;8.472;2023-04-06T09:14:15;96.10;;;11.02;;
4895;SDS011;2463;49.948;8.472;2023-04-06T09:16:43;102.83;;;12.50;;
4895;SDS011;2463;49.948;8.472;2023-04-06T09:19:11;97.00;;;10.03;;
4895;SDS011;2463;49.948;8.472;2023-04-06T09:21:38;93.73;;;11.43;;
4895;SDS011;2463;49.948;8.472;2023-04-06T09:24:06;96.60;;;11.88;;
4895;SDS011;2463;49.948;8.472;2023-04-06T09:26:44;94.97;;;11.93;;
4895;SDS011;2463;49.948;8.472;2023-04-06T09:29:21;98.85;;;11.95;;
4895;SDS011;2463;49.948;8.472;2023-04-06T09:32:04;95.18;;;10.98;;
4895;SDS011;2463;49.948;8.472;2023-04-06T09:34:32;94.47;;;11.13;;
4895;SDS011;2463;49.948;8.472;2023-04-06T09:37:15;96.67;;;11.00;;
4895;SDS011;2463;49.948;8.472;2023-04-06T09:39:42;95.75;;;10.68;;
4895;SDS011;2463;49.948;8.472;2023-04-06T09:42:09;96.68;;;10.50;;
4895;SDS011;2463;49.948;8.472;2023-04-06T09:44:37;96.45;;;11.15;;
4895;SDS011;2463;49.948;8.472;2023-04-06T09:47:05;101.10;;;11.90;;
4895;SDS011;2463;49.948;8.472;2023-04-06T09:49:34;93.57;;;10.23;;
4895;SDS011;2463;49.948;8.472;2023-04-06T09:52:02;95.88;;;11.10;;
4895;SDS011;2463;49.948;8.472;2023-04-06T09:54:30;95.97;;;10.68;;
4895;SDS011;2463;49.948;8.472;2023-04-06T10:02:44;96.78;;;10.85;;
4895;SDS011;2463;49.948;8.472;2023-04-06T10:05:37;101.32;;;10.68;;
4895;SDS011;2463;49.948;8.472;2023-04-06T10:08:13;99.22;;;12.20;;
4895;SDS011;2463;49.948;8.472;2023-04-06T10:10:40;95.78;;;10.57;;
4895;SDS011;2463;49.948;8.472;2023-04-06T10:13:10;98.78;;;11.35;;
4895;SDS011;2463;49.948;8.472;2023-04-06T10:15:38;99.38;;;11.25;;
4895;SDS011;2463;49.948;8.472;2023-04-06T10:18:06;96.97;;;10.30;;
4895;SDS011;2463;49.948;8.472;2023-04-06T10:20:35;95.75;;;10.73;;
4895;SDS011;2463;49.948;8.472;2023-04-06T10:23:13;99.25;;;10.90;;
4895;SDS011;2463;49.948;8.472;2023-04-06T10:25:54;105.30;;;13.10;;
4895;SDS011;2463;49.948;8.472;2023-04-06T10:28:23;98.30;;;10.68;;
4895;SDS011;2463;49.948;8.472;2023-04-06T10:30:57;102.20;;;12.70;;
4895;SDS011;2463;49.948;8.472;2023-04-06T10:33:25;102.68;;;11.60;;
4895;SDS011;2463;49.948;8.472;2023-04-06T10:35:53;97.15;;;11.25;;
4895;SDS011;2463;49.948;8.472;2023-04-06T10:38:32;96.43;;;10.65;;
4895;SDS011;2463;49.948;8.472;2023-04-06T10:41:08;97.65;;;10.75;;
4895;SDS011;2463;49.948;8.472;2023-04-06T10:43:36;98.47;;;10.65;;
4895;SDS011;2463;49.948;8.472;2023-04-06T10:46:04;93.00;;;10.43;;
4895;SDS011;2463;49.948;8.472;2023-04-06T10:48:36;95.53;;;11.03;;
4895;SDS011;2463;49.948;8.472;2023-04-06T10:51:08;97.37;;;11.10;;
4895;SDS011;2463;49.948;8.472;2023-04-06T10:53:36;94.47;;;11.20;;
4895;SDS011;2463;49.948;8.472;2023-04-06T10:56:04;98.40;;;11.77;;
4895;SDS011;2463;49.948;8.472;2023-04-06T10:58:46;98.17;;;11.40;;
4895;SDS011;2463;49.948;8.472;2023-04-06T11:01:17;99.45;;;11.60;;
4895;SDS011;2463;49.948;8.472;2023-04-06T11:03:47;100.00;;;11.00;;
4895;SDS011;2463;49.948;8.472;2023-04-06T11:06:21;98.45;;;10.68;;
4895;SDS011;2463;49.948;8.472;2023-04-06T11:08:49;101.43;;;11.20;;
4895;SDS011;2463;49.948;8.472;2023-04-06T11:11:17;99.27;;;12.03;;
4895;SDS011;2463;49.948;8.472;2023-04-06T11:13:48;96.88;;;10.50;;
4895;SDS011;2463;49.948;8.472;2023-04-06T11:16:23;102.50;;;11.23;;
4895;SDS011;2463;49.948;8.472;2023-04-06T11:19:00;97.68;;;9.70;;
4895;SDS011;2463;49.948;8.472;2023-04-06T11:21:35;102.60;;;10.57;;
4895;SDS011;2463;49.948;8.472;2023-04-06T11:24:25;95.88;;;10.68;;
4895;SDS011;2463;49.948;8.472;2023-04-06T11:26:55;97.57;;;11.27;;
4895;SDS011;2463;49.948;8.472;2023-04-06T11:29:28;98.22;;;11.18;;
4895;SDS011;2463;49.948;8.472;2023-04-06T11:32:00;101.20;;;10.48;;
4895;SDS011;2463;49.948;8.472;2023-04-06T11:34:28;95.82;;;9.77;;
4895;SDS011;2463;49.948;8.472;2023-04-06T11:36:57;96.40;;;10.50;;
4895;SDS011;2463;49.948;8.472;2023-04-06T11:39:26;96.70;;;10.20;;
4895;SDS011;2463;49.948;8.472;2023-04-06T11:41:57;100.95;;;10.38;;
4895;SDS011;2463;49.948;8.472;2023-04-06T11:47:01;104.65;;;12.35;;
4895;SDS011;2463;49.948;8.472;2023-04-06T11:49:30;97.78;;;10.50;;
4895;SDS011;2463;49.948;8.472;2023-04-06T11:51:58;97.63;;;10.70;;
4895;SDS011;2463;49.948;8.472;2023-04-06T11:54:44;100.70;;;11.23;;
4895;SDS011;2463;49.948;8.472;2023-04-06T11:57:11;100.10;;;11.18;;
4895;SDS011;2463;49.948;8.472;2023-04-06T11:59:38;101.95;;;11.32;;
4895;SDS011;2463;49.948;8.472;2023-04-06T12:02:05;100.70;;;11.93;;
4895;SDS011;2463;49.948;8.472;2023-04-06T12:04:32;100.03;;;11.32;;
4895;SDS011;2463;49.948;8.472;2023-04-06T12:06:59;99.57;;;11.40;;
4895;SDS011;2463;49.948;8.472;2023-04-06T12:09:26;97.28;;;10.90;;
4895;SDS011;2463;49.948;8.472;2023-04-06T12:11:52;98.15;;;11.00;;
4895;SDS011;2463;49.948;8.472;2023-04-06T12:14:20;99.63;;;11.80;;
4895;SDS011;2463;49.948;8.472;2023-04-06T12:16:48;97.93;;;10.52;;
4895;SDS011;2463;49.948;8.472;2023-04-06T12:19:14;100.57;;;11.05;;
4895;SDS011;2463;49.948;8.472;2023-04-06T12:21:41;98.50;;;11.20;;
4895;SDS011;2463;49.948;8.472;2023-04-06T12:24:08;99.88;;;10.45;;
4895;SDS011;2463;49.948;8.472;2023-04-06T12:26:35;98.80;;;11.85;;
4895;SDS011;2463;49.948;8.472;2023-04-06T12:29:03;99.15;;;11.23;;
4895;SDS011;2463;49.948;8.472;2023-04-06T12:31:36;98.70;;;11.32;;
4895;SDS011;2463;49.948;8.472;2023-04-06T12:34:05;96.07;;;10.45;;
4895;SDS011;2463;49.948;8.472;2023-04-06T12:36:32;99.15;;;10.30;;
4895;SDS011;2463;49.948;8.472;2023-04-06T12:38:59;97.72;;;10.02;;
4895;SDS011;2463;49.948;8.472;2023-04-06T12:41:27;94.95;;;9.85;;
4895;SDS011;2463;49.948;8.472;2023-04-06T12:43:54;98.97;;;10.25;;
4895;SDS011;2463;49.948;8.472;2023-04-06T12:46:22;100.18;;;10.35;;
4895;SDS011;2463;49.948;8.472;2023-04-06T12:48:50;100.03;;;10.57;;
4895;SDS011;2463;49.948;8.472;2023-04-06T12:51:19;95.25;;;10.07;;
4895;SDS011;2463;49.948;8.472;2023-04-06T12:53:46;99.38;;;10.85;;
4895;SDS011;2463;49.948;8.472;2023-04-06T12:56:16;105.90;;;10.68;;
4895;SDS011;2463;49.948;8.472;2023-04-06T12:58:44;97.75;;;10.50;;
4895;SDS011;2463;49.948;8.472;2023-04-06T13:01:11;97.88;;;9.57;;
4895;SDS011;2463;49.948;8.472;2023-04-06T13:03:39;96.05;;;9.30;;
4895;SDS011;2463;49.948;8.472;2023-04-06T13:06:07;98.50;;;11.68;;
4895;SDS011;2463;49.948;8.472;2023-04-06T13:08:34;97.85;;;9.85;;
4895;SDS011;2463;49.948;8.472;2023-04-06T13:11:03;95.05;;;9.27;;
4895;SDS011;2463;49.948;8.472;2023-04-06T13:13:31;99.45;;;9.00;;
4895;SDS011;2463;49.948;8.472;2023-04-06T13:16:02;95.53;;;9.50;;
4895;SDS011;2463;49.948;8.472;2023-04-06T13:18:38;99.57;;;9.98;;
4895;SDS011;2463;49.948;8.472;2023-04-06T13:21:05;95.53;;;9.43;;
4895;SDS011;2463;49.948;8.472;2023-04-06T13:23:33;96.40;;;9.10;;
4895;SDS011;2463;49.948;8.472;2023-04-06T13:26:01;99.15;;;9.10;;
4895;SDS011;2463;49.948;8.472;2023-04-06T13:28:30;95.85;;;9.55;;
4895;SDS011;2463;49.948;8.472;2023-04-06T13:30:58;94.00;;;9.10;;
4895;SDS011;2463;49.948;8.472;2023-04-06T13:33:25;99.65;;;10.27;;
4895;SDS011;2463;49.948;8.472;2023-04-06T13:35:52;96.47;;;8.65;;
4895;SDS011;2463;49.948;8.472;2023-04-06T13:38:19;97.68;;;9.45;;
4895;SDS011;2463;49.948;8.472;2023-04-06T13:40:46;95.18;;;8.82;;
4895;SDS011;2463;49.948;8.472;2023-04-06T13:43:13;98.95;;;9.32;;
4895;SDS011;2463;49.948;8.472;2023-04-06T13:45:40;94.68;;;9.15;;
4895;SDS011;2463;49.948;8.472;2023-04-06T13:48:07;97.40;;;9.43;;
4895;SDS011;2463;49.948;8.472;2023-04-06T13:50:33;94.28;;;8.73;;
4895;SDS011;2463;49.948;8.472;2023-04-06T13:53:01;100.80;;;10.80;;
4895;SDS011;2463;49.948;8.472;2023-04-06T13:55:27;98.53;;;9.18;;
4895;SDS011;2463;49.948;8.472;2023-04-06T13:57:54;96.43;;;9.45;;
4895;SDS011;2463;49.948;8.472;2023-04-06T14:00:21;94.25;;;9.13;;
4895;SDS011;2463;49.948;8.472;2023-04-06T14:02:48;92.93;;;8.35;;
4895;SDS011;2463;49.948;8.472;2023-04-06T14:05:14;95.82;;;8.70;;
4895;SDS011;2463;49.948;8.472;2023-04-06T14:07:41;100.45;;;9.30;;
4895;SDS011;2463;49.948;8.472;2023-04-06T14:10:08;96.72;;;9.15;;
4895;SDS011;2463;49.948;8.472;2023-04-06T14:12:40;94.85;;;8.30;;
4895;SDS011;2463;49.948;8.472;2023-04-06T14:15:11;95.28;;;9.00;;
4895;SDS011;2463;49.948;8.472;2023-04-06T14:17:38;93.10;;;8.20;;
4895;SDS011;2463;49.948;8.472;2023-04-06T14:20:05;97.05;;;9.68;;
4895;SDS011;2463;49.948;8.472;2023-04-06T14:22:33;100.05;;;9.75;;
4895;SDS011;2463;49.948;8.472;2023-04-06T14:25:00;96.10;;;9.32;;
4895;SDS011;2463;49.948;8.472;2023-04-06T14:27:27;96.57;;;9.38;;
4895;SDS011;2463;49.948;8.472;2023-04-06T14:29:53;100.28;;;9.20;;
4895;SDS011;2463;49.948;8.472;2023-04-06T14:32:20;94.35;;;8.60;;
4895;SDS011;2463;49.948;8.472;2023-04-06T14:34:47;95.18;;;9.15;;
4895;SDS011;2463;49.948;8.472;2023-04-06T14:37:14;95.90;;;9.13;;
4895;SDS011;2463;49.948;8.472;2023-04-06T14:39:41;99.72;;;9.18;;
4895;SDS011;2463;49.948;8.472;2023-04-06T14:42:07;95.65;;;8.50;;
4895;SDS011;2463;49.948;8.472;2023-04-06T14:44:34;94.13;;;8.40;;
4895;SDS011;2463;49.948;8.472;2023-04-06T14:47:02;94.93;;;8.50;;
4895;SDS011;2463;49.948;8.472;2023-04-06T14:49:32;95.43;;;8.98;;
4895;SDS011;2463;49.948;8.472;2023-04-06T14:51:59;100.85;;;9.23;;
4895;SDS011;2463;49.948;8.472;2023-04-06T14:54:26;99.68;;;9.55;;
4895;SDS011;2463;49.948;8.472;2023-04-06T14:56:53;97.68;;;9.70;;
4895;SDS011;2463;49.948;8.472;2023-04-06T14:59:19;96.90;;;8.98;;
4895;SDS011;2463;49.948;8.472;2023-04-06T15:01:46;94.43;;;9.23;;
4895;SDS011;2463;49.948;8.472;2023-04-06T15:04:13;94.97;;;7.78;;
4895;SDS011;2463;49.948;8.472;2023-04-06T15:06:40;93.43;;;7.88;;